createdAt,value
2018-02-19T06:16:43.968Z,88.40
2018-02-19T06:19:15.882Z,88.20
2018-02-19T06:21:47.767Z,88.30
2018-02-19T06:24:19.659Z,88.30
2018-02-19T06:26:51.776Z,88.30
2018-02-19T06:29:23.667Z,88.50
2018-02-19T06:31:56.235Z,88.20
2018-02-19T06:34:28.126Z,88.10
2018-02-19T06:37:00.340Z,88.00
2018-02-19T06:39:32.243Z,87.90
2018-02-19T06:42:04.363Z,88.10
2018-02-19T06:44:36.262Z,88.20
2018-02-19T06:47:08.392Z,88.10
2018-02-19T06:49:40.299Z,87.60
2018-02-19T06:52:12.179Z,87.90
2018-02-19T06:54:44.840Z,88.00
2018-02-19T06:57:16.715Z,88.00
2018-02-19T06:59:49.478Z,88.00
2018-02-19T07:02:21.697Z,87.40
2018-02-19T07:04:53.599Z,87.60
2018-02-19T07:07:25.667Z,87.70
2018-02-19T07:09:57.631Z,87.20
2018-02-19T07:12:29.520Z,87.60
2018-02-19T07:15:02.275Z,87.20
2018-02-19T07:17:34.163Z,86.60
2018-02-19T07:20:06.827Z,86.20
2018-02-19T07:22:38.703Z,86.10
2018-02-19T07:25:11.359Z,86.30
2018-02-19T07:27:43.231Z,86.20
2018-02-19T07:30:15.126Z,86.50
2018-02-19T07:32:47.015Z,86.20
2018-02-19T07:35:18.899Z,85.90
2018-02-19T07:37:50.796Z,85.70
2018-02-19T07:40:22.684Z,85.70
2018-02-19T07:42:54.604Z,85.40
2018-02-19T07:45:26.461Z,85.30
2018-02-19T07:47:59.107Z,84.70
2018-02-19T07:50:30.994Z,84.60
2018-02-19T07:53:03.642Z,84.40
2018-02-19T07:55:35.751Z,84.40
2018-02-19T07:58:08.391Z,83.90
2018-02-19T08:00:40.300Z,83.90
2018-02-19T08:03:12.172Z,83.80
2018-02-19T08:05:44.075Z,83.00
2018-02-19T08:08:15.951Z,82.70
2018-02-19T08:10:48.151Z,83.20
2018-02-19T08:13:20.319Z,83.70
2018-02-19T08:15:52.235Z,82.80
2018-02-19T08:18:24.111Z,81.70
2018-02-19T08:20:56.307Z,81.60
2018-02-19T08:23:28.253Z,81.20
2018-02-19T08:26:00.996Z,81.10
2018-02-19T08:28:32.951Z,81.10
2018-02-19T08:31:04.855Z,82.20
2018-02-19T08:33:37.591Z,80.60
2018-02-19T08:36:09.556Z,80.50
2018-02-19T08:38:41.464Z,80.60
2018-02-19T08:41:14.131Z,80.80
2018-02-19T08:43:46.779Z,80.10
2018-02-19T08:46:18.679Z,80.10
2018-02-19T08:48:58.531Z,79.40
2018-02-19T08:51:30.706Z,79.40
2018-02-19T08:54:02.871Z,79.20
2018-02-19T08:56:34.765Z,78.10
2018-02-19T08:59:06.651Z,77.80
2018-02-19T09:01:38.539Z,77.30
2018-02-19T09:04:10.428Z,77.20
2018-02-19T09:06:42.319Z,77.20
2018-02-19T09:09:14.209Z,77.00
2018-02-19T09:11:46.875Z,76.50
2018-02-19T09:14:18.753Z,76.50
2018-02-19T09:16:51.420Z,75.80
2018-02-19T09:19:23.617Z,75.70
2018-02-19T09:21:55.510Z,75.70
2018-02-19T09:24:27.400Z,75.60
2018-02-19T09:26:59.352Z,75.30
2018-02-19T09:29:31.273Z,75.50
2018-02-19T09:32:03.899Z,75.20
2018-02-19T09:34:36.103Z,75.20
2018-02-19T09:37:07.999Z,74.70
2018-02-19T09:39:39.883Z,74.50
2018-02-19T09:42:12.430Z,73.60
2018-02-19T09:44:43.951Z,73.70
2018-02-19T09:47:15.847Z,72.70
2018-02-19T09:49:47.736Z,72.00
2018-02-19T09:52:19.939Z,72.30
2018-02-19T09:54:51.823Z,72.20
2018-02-19T09:57:23.721Z,71.20
2018-02-19T09:59:55.595Z,70.70
2018-02-19T10:02:28.505Z,69.30
2018-02-19T10:05:00.410Z,69.20
2018-02-19T10:07:32.375Z,69.20
2018-02-19T10:10:04.342Z,68.50
2018-02-19T10:12:36.293Z,67.90
2018-02-19T10:15:08.414Z,68.20
2018-02-19T10:17:40.579Z,68.60
2018-02-19T10:20:12.468Z,68.80
2018-02-19T10:22:44.608Z,69.10
2018-02-19T10:25:17.327Z,68.10
2018-02-19T10:27:49.983Z,67.50
2018-02-19T10:30:21.882Z,67.50
2018-02-19T10:32:53.768Z,67.70
2018-02-19T10:35:26.407Z,67.20
2018-02-19T10:37:58.311Z,67.20
2018-02-19T10:40:31.208Z,65.20
2018-02-19T10:43:03.124Z,65.20
2018-02-19T10:45:34.991Z,64.50
2018-02-19T10:48:06.931Z,65.80
2018-02-19T10:50:39.055Z,66.60
2018-02-19T10:53:10.943Z,66.50
2018-02-19T10:55:43.079Z,65.40
2018-02-19T10:58:14.995Z,66.00
2018-02-19T11:00:48.382Z,65.30
2018-02-19T11:03:20.347Z,65.30
2018-02-19T11:05:52.464Z,64.70
2018-02-19T11:08:24.359Z,65.00
2018-02-19T11:10:56.243Z,64.70
2018-02-19T11:13:28.156Z,65.60
2018-02-19T11:16:00.107Z,65.10
2018-02-19T11:18:32.002Z,63.50
2018-02-19T11:21:03.971Z,63.40
2018-02-19T11:23:35.869Z,63.40
2018-02-19T11:26:08.511Z,63.50
2018-02-19T11:28:40.480Z,63.40
2018-02-19T11:31:12.436Z,64.60
2018-02-19T11:33:44.331Z,64.50
2018-02-19T11:36:17.240Z,63.90
2018-02-19T11:38:55.378Z,63.90
2018-02-19T11:41:21.262Z,63.70
2018-02-19T11:43:53.172Z,63.70
2018-02-19T11:46:25.072Z,63.70
2018-02-19T11:48:57.728Z,63.60
2018-02-19T11:51:30.376Z,64.80
2018-02-19T11:54:02.267Z,64.30
2018-02-19T11:56:34.153Z,63.20
2018-02-19T11:59:06.325Z,64.60
2018-02-19T12:01:38.207Z,64.50
2018-02-19T12:04:10.195Z,64.60
2018-02-19T12:06:42.071Z,64.70
2018-02-19T12:09:14.019Z,64.40
2018-02-19T12:11:45.980Z,62.80
2018-02-19T12:14:17.903Z,62.80
2018-02-19T12:16:49.796Z,63.20
2018-02-19T12:19:21.701Z,62.80
2018-02-19T12:21:54.356Z,62.80
2018-02-19T12:24:26.252Z,62.80
2018-02-19T12:26:58.135Z,63.50
2018-02-19T12:29:30.029Z,63.30
2018-02-19T12:32:02.136Z,62.50
2018-02-19T12:34:34.305Z,62.50
2018-02-19T12:37:06.182Z,62.30
2018-02-19T12:39:38.078Z,59.60
2018-02-19T12:42:09.962Z,60.00
2018-02-19T12:44:42.630Z,61.00
2018-02-19T12:47:14.511Z,61.00
2018-02-19T12:49:46.422Z,61.20
2018-02-19T12:52:18.295Z,61.80
2018-02-19T12:54:50.192Z,60.70
2018-02-19T12:57:22.074Z,60.20
2018-02-19T12:59:53.964Z,61.80
2018-02-19T13:02:25.847Z,62.20
2018-02-19T13:04:58.914Z,62.20
2018-02-19T13:07:31.557Z,62.70
2018-02-19T13:10:03.453Z,62.70
2018-02-19T13:12:35.338Z,63.50
2018-02-19T13:15:07.998Z,62.90
2018-02-19T13:17:39.875Z,63.40
2018-02-19T13:20:12.537Z,63.80
2018-02-19T13:22:44.415Z,63.50
2018-02-19T13:25:17.072Z,62.00
2018-02-19T13:27:48.958Z,62.00
2018-02-19T13:30:21.619Z,63.20
2018-02-19T13:32:53.503Z,63.20
2018-02-19T13:35:26.166Z,64.10
2018-02-19T13:37:58.050Z,64.70
2018-02-19T13:40:30.715Z,63.60
2018-02-19T13:43:03.364Z,63.00
2018-02-19T13:45:35.260Z,62.90
2018-02-19T13:48:08.159Z,62.20
2018-02-19T13:50:40.051Z,62.10
2018-02-19T13:53:11.936Z,61.80
2018-02-19T13:55:43.841Z,61.70
2018-02-19T13:58:15.720Z,61.30
2018-02-19T14:00:47.973Z,62.20
2018-02-19T14:03:19.852Z,60.70
2018-02-19T14:05:51.759Z,59.80
2018-02-19T14:08:24.631Z,60.10
2018-02-19T14:10:56.516Z,60.00
2018-02-19T14:13:29.168Z,60.30
2018-02-19T14:16:01.063Z,60.30
2018-02-19T14:18:32.939Z,60.50
2018-02-19T14:21:04.831Z,60.00
2018-02-19T14:23:36.722Z,60.70
2018-02-19T14:26:08.619Z,60.90
2018-02-19T14:28:40.695Z,60.80
2018-02-19T14:31:12.588Z,60.20
2018-02-19T14:33:44.475Z,60.40
2018-02-19T14:36:17.219Z,60.30
2018-02-19T14:38:49.344Z,60.20
2018-02-19T14:41:21.512Z,60.80
2018-02-19T14:43:53.679Z,61.50
2018-02-19T14:46:25.576Z,61.70
2018-02-19T14:48:57.463Z,61.40
2018-02-19T14:51:29.429Z,61.80
2018-02-19T14:54:01.247Z,62.10
2018-02-19T14:56:33.143Z,62.10
2018-02-19T14:59:05.083Z,61.80
2018-02-19T15:01:36.991Z,62.30
2018-02-19T15:04:08.875Z,61.80
2018-02-19T15:06:41.033Z,61.70
2018-02-19T15:09:13.192Z,62.20
2018-02-19T15:11:45.088Z,61.90
2018-02-19T15:14:16.963Z,62.60
2018-02-19T15:16:48.863Z,62.10
2018-02-19T15:19:20.742Z,62.30
2018-02-19T15:21:52.643Z,62.20
2018-02-19T15:24:24.765Z,61.90
2018-02-19T15:26:56.661Z,61.40
2018-02-19T15:29:28.543Z,60.20
2018-02-19T15:32:00.442Z,60.70
2018-02-19T15:34:32.338Z,61.50
2018-02-19T15:37:04.228Z,61.70
2018-02-19T15:39:36.432Z,62.20
2018-02-19T15:42:08.320Z,63.80
2018-02-19T15:44:40.541Z,63.60
2018-02-19T15:47:13.195Z,63.80
2018-02-19T15:49:45.083Z,63.70
2018-02-19T15:52:17.779Z,63.70
2018-02-19T15:54:49.667Z,63.70
2018-02-19T15:57:21.559Z,63.80
2018-02-19T15:59:54.215Z,63.50
2018-02-19T16:02:26.104Z,64.00
2018-02-19T16:04:57.980Z,63.50
2018-02-19T16:07:30.880Z,63.80
2018-02-19T16:10:02.788Z,63.70
2018-02-19T16:12:34.682Z,63.70
2018-02-19T16:15:07.325Z,63.90
2018-02-19T16:17:39.215Z,63.10
2018-02-19T16:20:11.905Z,63.00
2018-02-19T16:22:44.564Z,63.60
2018-02-19T16:25:17.211Z,62.50
2018-02-19T16:27:49.099Z,63.10
2018-02-19T16:30:20.983Z,63.40
2018-02-19T16:32:52.879Z,64.30
2018-02-19T16:35:24.760Z,64.30
2018-02-19T16:37:56.662Z,65.80
2018-02-19T16:40:29.305Z,66.00
2018-02-19T16:43:01.198Z,66.00
2018-02-19T16:45:33.838Z,65.00
2018-02-19T16:48:05.731Z,65.00
2018-02-19T16:50:38.367Z,65.80
2018-02-19T16:53:11.029Z,65.50
2018-02-19T16:55:42.912Z,65.20
2018-02-19T16:58:14.812Z,65.50
2018-02-19T17:00:47.456Z,65.90
2018-02-19T17:03:19.356Z,65.80
2018-02-19T17:05:51.236Z,66.20
2018-02-19T17:08:23.131Z,67.40
2018-02-19T17:10:55.014Z,67.30
2018-02-19T17:13:26.903Z,67.20
2018-02-19T17:15:58.790Z,67.10
2018-02-19T17:18:30.931Z,67.20
2018-02-19T17:21:02.814Z,67.70
2018-02-19T17:23:34.703Z,68.20
2018-02-19T17:26:06.615Z,68.60
2018-02-19T17:28:39.239Z,69.20
2018-02-19T17:31:11.124Z,69.20
2018-02-19T17:33:43.787Z,69.70
2018-02-19T17:36:15.676Z,69.70
2018-02-19T17:38:47.578Z,70.60
2018-02-19T17:41:19.455Z,71.10
2018-02-19T17:43:51.352Z,70.20
2018-02-19T17:46:23.992Z,71.10
2018-02-19T17:48:55.887Z,71.10
2018-02-19T17:51:28.794Z,70.20
2018-02-19T17:54:00.692Z,70.20
2018-02-19T17:56:33.295Z,70.40
2018-02-19T17:59:05.187Z,70.10
2018-02-19T18:01:37.067Z,70.70
2018-02-19T18:04:08.961Z,71.20
2018-02-19T18:06:40.840Z,71.40
2018-02-19T18:09:13.499Z,71.20
2018-02-19T18:11:45.716Z,71.20
2018-02-19T18:14:17.613Z,71.10
2018-02-19T18:16:49.532Z,70.80
2018-02-19T18:19:21.451Z,71.00
2018-02-19T18:21:53.564Z,71.30
2018-02-19T18:24:25.486Z,71.90
2018-02-19T18:26:57.364Z,72.00
2018-02-19T18:29:30.026Z,71.70
2018-02-19T18:32:02.703Z,71.60
2018-02-19T18:34:34.908Z,71.50
2018-02-19T18:37:06.811Z,71.50
2018-02-19T18:39:38.695Z,72.50
2018-02-19T18:42:10.579Z,72.30
2018-02-19T18:44:43.474Z,72.10
2018-02-19T18:47:15.356Z,72.00
2018-02-19T18:49:47.243Z,72.10
2018-02-19T18:52:19.127Z,71.60
2018-02-19T18:54:51.779Z,71.90
2018-02-19T18:57:23.671Z,71.90
2018-02-19T18:59:56.318Z,72.10
2018-02-19T19:02:28.968Z,72.70
2018-02-19T19:05:00.859Z,72.60
2018-02-19T19:10:52.951Z,72.00
2018-02-19T19:13:25.607Z,73.00
2018-02-19T19:15:57.496Z,72.90
2018-02-19T19:18:30.162Z,72.20
2018-02-19T19:21:02.795Z,72.90
2018-02-19T19:23:34.768Z,72.90
2018-02-19T19:26:06.730Z,72.30
2018-02-19T19:28:38.620Z,72.60
2018-02-19T19:31:11.260Z,72.90
2018-02-19T19:33:43.141Z,72.30
2018-02-19T19:36:15.020Z,72.40
2018-02-19T19:38:47.683Z,72.50
2018-02-19T19:41:19.556Z,72.40
2018-02-19T19:43:52.219Z,72.30
2018-02-19T19:46:24.083Z,72.20
2018-02-19T19:48:55.987Z,72.40
2018-02-19T19:51:27.855Z,72.50
2018-02-19T19:53:59.798Z,72.50
2018-02-19T19:56:31.879Z,72.70
2018-02-19T19:59:04.027Z,73.50
2018-02-19T20:01:36.119Z,73.10
2018-02-19T20:04:08.004Z,73.10
2018-02-19T20:06:39.880Z,73.10
2018-02-19T20:09:11.771Z,73.70
2018-02-19T20:11:44.407Z,74.30
2018-02-19T20:14:16.519Z,74.20
2018-02-19T20:16:48.683Z,74.00
2018-02-19T20:19:20.577Z,73.90
2018-02-19T20:21:52.447Z,74.10
2018-02-19T20:24:24.338Z,74.50
2018-02-19T20:26:56.982Z,74.30
2018-02-19T20:29:28.867Z,74.30
2018-02-19T20:32:00.740Z,74.50
2018-02-19T20:34:32.634Z,74.40
2018-02-19T20:37:04.515Z,74.30
2018-02-19T20:39:36.397Z,74.50
2018-02-19T20:42:08.271Z,74.10
2018-02-19T20:44:40.471Z,74.00
2018-02-19T20:47:12.342Z,73.90
2018-02-19T20:49:44.244Z,73.90
2018-02-19T20:52:16.133Z,74.40
